AirNav   Everest Fuels
 
 392 users online  

9NR4 Wolf Pit Airport
Mount Pleasant, North Carolina, USA

GOING TO MOUNT PLEASANT?


FAA INFORMATION EFFECTIVE 03 NOVEMBER 2022

Location

FAA Identifier: 9NR4
Lat/Long: 35-21-18.0000N 080-25-53.0000W
35-21.300000N 080-25.883333W
35.3550000,-80.4313889
(estimated)
Elevation: 535 ft. / 163 m (estimated)
From city: 3 miles S of MT. PLEASANT, NC
Time zone: UTC -5 (UTC -4 during Daylight Saving Time)
Zip code: 28124

Airport Operations

Airport use: Private use. Permission required prior to landing
Activation date: 12/2014
Control tower: no
ARTCC: ATLANTA CENTER
FSS: RALEIGH FLIGHT SERVICE STATION
Attendance: UNATNDD
Wind indicator: yes
Segmented circle: no

Airport Communications

WX AWOS-3 at JQF (14 nm W): 133.675 (704-785-2145)
WX AWOS-3 at VUJ (14 nm E): 128.175 (704-986-2097)
WX AWOS-3 at RUQ (18 nm N): 118.175 (704-637-6197)

Nearby radio navigation aids

VOR radial/distance  VOR name  Freq  Var
CLTr074/27.3CHARLOTTE VOR/DME115.0005W

 
NDB name  Hdg/Dist  Freq  Var  ID
STONIA081/36.926006WGHJ --. .... .---

Airport Services

Runway Information

Runway 3/21

Dimensions: 1500 x 50 ft. / 457 x 15 m
Surface: turf
RUNWAY 3  RUNWAY 21
Traffic pattern: leftleft
Obstructions: none40 ft. pline, marked, 50 ft. from runway

Airport Ownership and Management from official FAA records

Ownership: Privately-owned
Owner: GARY W BARRIER
4600 BARRIER GEORGEVILLE ROAD
MT. PLEASANT, NC 28124
Phone 704-589-7439
Manager: GARY W BARRIER
4600 BARRIER GEORGEVILLE ROAD
MT. PLEASANT, NC 28124
Phone 704-589-7439

Airport Operational Statistics

Aircraft based on the field: 1
Single engine airplanes: 1
    

Additional Remarks

40 FT POWER LINE MARKED WITH ORANGE BALL 50 FT FROM RWY 21 THLD
RECOMMMEND LNDG RWY 03 AND TKOF RWY 21
FOR CD CTC CHARLOTTE APCH AT 704-359-0241.

Instrument Procedures

There are no published instrument procedures at 9NR4.

Some nearby airports with instrument procedures:

KJQF - Concord-Padgett Regional Airport (14 nm W)
KVUJ - Stanly County Airport (14 nm E)
KRUQ - Mid-Carolina Regional Airport (18 nm N)
KEQY - Charlotte-Monroe Executive Airport (22 nm SW)
KEXX - Davidson County Airport (26 nm N)
 
Loc | Ops | Rwys | IFR | FBO | Links
Com | Nav | Svcs | Stats | Notes
Aerial photo
No photo
 
Airport distance calculator
Flying to Wolf Pit Airport? Find the distance to fly.

From to 9NR4

Sunrise and sunset
Times for 28-Nov-2022
 Local
(UTC-5)
 Zulu
(UTC)
Morning civil twilight06:4311:43
Sunrise07:1112:11
Sunset17:0922:09
Evening civil twilight17:3722:37

Current date and time
Zulu (UTC)  28-Nov-2022 09:07:16
Local (UTC-5)  28-Nov-2022 04:07:16
 
METAR
KJQF 
14nm W 
280855Z AUTO 00000KT 10SM CLR 08/05 A2982 RMK AO2
KVUJ 
14nm E 
280855Z AUTO 00000KT 10SM CLR 09/06 A2982 RMK AO2 T00940058
KRUQ 
18nm N 
280855Z AUTO 00000KT 10SM CLR 11/05 A2978 RMK AO2 T01070052
KEQY 
22nm SW 
280853Z AUTO 23006KT 10SM CLR 09/06 A2979 RMK AO2 SLP093 T00940061 51006
KEXX 
26nm N 
280855Z AUTO 00000KT 10SM CLR 09/07 A2978 RMK AO2 T00860065
KAFP 
27nm SE 
280855Z AUTO 00000KT 10SM CLR 09/06 A2979 RMK AO2 T00890061
KCLT 
27nm W 
280852Z 24003KT 10SM CLR 11/06 A2979 RMK SLP083 T01060061 53004 $
TAF
KCLT 
27nm W 
280520Z 2806/2912 25007KT P6SM SKC FM281200 25004KT P6SM SKC FM281600 28007KT P6SM SCT028 FM290500 05003KT P6SM FEW250
NOTAMs
Click for the latest NOTAMs
NOTAMs are issued by the DoD/FAA and will open in a separate window not controlled by AirNav.

 

 
 

Would you like to see your business listed on this page?

 If your business provides an interesting product or service to pilots, flight crews, aircraft, or users of the Wolf Pit Airport, you should consider listing it here.  To start the listing process, click on the button below
 
Add a business
 

Other Pages about Wolf Pit Airport

Update a link
 
Copyright © AirNav, LLC. All rights reserved. Privacy Policy  Contact